• Join FlightAware (Why Join?)
  • Login
  • US Flag 
07:23PM EDT


 

Airport Tracker/Info


-or-


 

Live Flight TrackerFlight Track Log ✈ UAL33 ✈ 10-Dec-2013 ✈ RJAA / NRT - KLAX

Flight Track Log - Related Links

Times and Time Zones

All times are in EST time to prevent confusion due to time zone crossing. See the UAL33 flight status page for this flight to view local times or setup timezone preferences in your user account.

Time Position Orientation Groundspeed Altitude Reporting Facility
EST Latitude Longitude Course Direction KTS MPH feet Rate Location/Type
05:01AM 36.0840 140.9766 84° East  Level Estimated
05:02AM 36.1634 141.1249 90° East  Level Estimated
05:03AM 36.2426 141.2735 86° East  Level Estimated
05:04AM 36.1680 141.4256 121° Southeast  Level FlightAware Approximate
05:05AM 36.2469 141.5745 90° East  Level Estimated
05:06AM 36.3256 141.7237 73° East  Level Estimated
05:07AM 36.4041 141.8731 90° East  Level Estimated
05:08AM 36.4824 142.0229 90° East  Level Estimated
05:09AM 36.5606 142.1729 83° East  Level Estimated
05:10AM 36.6385 142.3233 90° East  Level Estimated
05:11AM 36.5444 142.4586 131° Southeast  Level FlightAware Approximate
05:12AM 36.6221 142.6091 87° East  Level Estimated
05:13AM 36.5358 142.7523 127° Southeast  Level FlightAware Approximate
05:14AM 36.4494 142.8951 127° Southeast  Level FlightAware Approximate
05:15AM 36.5267 143.0458 77° East  Level Estimated
05:16AM 36.4524 143.1989 121° Southeast  Level FlightAware Approximate
05:17AM 36.5294 143.3498 78° East  Level Estimated
05:18AM 36.4996 143.5247 102° East  Level FlightAware Approximate
05:19AM 36.4695 143.6995 102° East  Level FlightAware Approximate
05:20AM 36.4392 143.8741 102° East  Level FlightAware Approximate
05:21AM 36.4087 144.0486 102° East  Level FlightAware Approximate
05:22AM 36.3778 144.2230 102° East  Level FlightAware Approximate
05:23AM 36.3468 144.3972 102° East  Level FlightAware Approximate
05:24AM 36.4225 144.5489 73° East  Level Estimated
05:25AM 36.4981 144.7009 68° East  Level Estimated
05:26AM 36.4881 144.8792 94° East  Level FlightAware Approximate
05:27AM 36.4778 145.0575 94° East  Level FlightAware Approximate
05:28AM 36.4673 145.2357 94° East  Level FlightAware Approximate
05:29AM 36.5421 145.3883 74° East  Level Estimated
05:30AM 36.5631 145.5584 81° East  Level FlightAware Approximate
05:31AM 36.5839 145.7286 81° East  Level FlightAware Approximate
05:32AM 36.6044 145.8989 81° East  Level FlightAware Approximate
05:33AM 36.6247 146.0693 82° East  Level FlightAware Approximate
05:34AM 36.6447 146.2397 82° East  Level FlightAware Approximate
05:35AM 36.6645 146.4103 82° East  Level FlightAware Approximate
05:36AM 36.6841 146.5809 82° East  Level FlightAware Approximate
05:37AM 36.7034 146.7516 82° East  Level FlightAware Approximate
05:38AM 36.7225 146.9224 82° East  Level FlightAware Approximate
05:39AM 36.7413 147.0933 82° East  Level FlightAware Approximate
05:40AM 36.7598 147.2643 82° East  Level FlightAware Approximate
05:41AM 36.7782 147.4353 82° East  Level FlightAware Approximate
05:42AM 36.8478 147.5845 84° East  Level Estimated
05:43AM 36.8603 147.7566 85° East  Level FlightAware Approximate
05:44AM 36.8725 147.9287 85° East  Level FlightAware Approximate
05:45AM 36.8845 148.1009 85° East  Level FlightAware Approximate
05:46AM 36.8962 148.2731 85° East  Level FlightAware Approximate
05:47AM 36.9077 148.4454 85° East  Level FlightAware Approximate
05:48AM 36.9190 148.6177 85° East  Level FlightAware Approximate
05:49AM 36.9300 148.7901 85° East  Level FlightAware Approximate
05:50AM 36.9407 148.9626 85° East  Level FlightAware Approximate
05:51AM 37.0087 149.1132 60° Northeast  Level Estimated
05:52AM 37.0748 149.2653 61° Northeast  Level FlightAware Approximate
05:53AM 37.1408 149.4177 61° Northeast  Level FlightAware Approximate
05:54AM 37.2065 149.5703 62° Northeast  Level FlightAware Approximate
05:55AM 37.2720 149.7232 62° Northeast  Level FlightAware Approximate
05:56AM 37.3374 149.8764 62° Northeast  Level FlightAware Approximate
05:57AM 37.4025 150.0298 62° Northeast  Level FlightAware Approximate
05:58AM 37.4674 150.1835 62° Northeast  Level FlightAware Approximate
05:59AM 37.5322 150.3375 62° Northeast  Level FlightAware Approximate
06:00AM 37.5967 150.4917 62° Northeast  Level FlightAware Approximate
06:01AM 37.6611 150.6462 62° Northeast  Level FlightAware Approximate
06:02AM 37.7252 150.8010 62° Northeast  Level FlightAware Approximate
06:03AM 37.7892 150.9560 62° Northeast  Level FlightAware Approximate
06:04AM 37.8529 151.1113 62° Northeast  Level FlightAware Approximate
06:05AM 37.9164 151.2669 63° Northeast  Level FlightAware Approximate
06:06AM 37.9797 151.4227 63° Northeast  Level FlightAware Approximate
06:07AM 38.0429 151.5788 63° Northeast  Level FlightAware Approximate
06:08AM 38.1058 151.7352 63° Northeast  Level FlightAware Approximate
06:09AM 38.1685 151.8918 63° Northeast  Level FlightAware Approximate
06:10AM 38.2310 152.0487 63° Northeast  Level FlightAware Approximate
06:11AM 38.2933 152.2059 63° Northeast  Level FlightAware Approximate
06:12AM 38.3553 152.3634 63° Northeast  Level FlightAware Approximate
06:13AM 38.4172 152.5211 63° Northeast  Level FlightAware Approximate
06:14AM 38.4789 152.6791 63° Northeast  Level FlightAware Approximate
06:15AM 38.5403 152.8373 64° Northeast  Level FlightAware Approximate
06:16AM 38.6015 152.9959 64° Northeast  Level FlightAware Approximate
06:17AM 38.6625 153.1547 64° Northeast  Level FlightAware Approximate
06:18AM 38.7233 153.3137 64° Northeast  Level FlightAware Approximate
06:19AM 38.7839 153.4731 64° Northeast  Level FlightAware Approximate
06:20AM 38.8443 153.6327 64° Northeast  Level FlightAware Approximate
06:21AM 38.9044 153.7926 64° Northeast  Level FlightAware Approximate
06:22AM 38.9644 153.9527 64° Northeast  Level FlightAware Approximate
06:23AM 39.0241 154.1132 64° Northeast  Level FlightAware Approximate
06:24AM 39.0836 154.2739 64° Northeast  Level FlightAware Approximate
06:25AM 39.1428 154.4348 65° Northeast  Level FlightAware Approximate
06:26AM 39.2019 154.5961 65° Northeast  Level FlightAware Approximate
06:27AM 39.2607 154.7576 65° Northeast  Level FlightAware Approximate
06:28AM 39.3193 154.9194 65° Northeast  Level FlightAware Approximate
06:29AM 39.3777 155.0814 65° Northeast  Level FlightAware Approximate
06:30AM 39.4358 155.2437 65° Northeast  Level FlightAware Approximate
06:31AM 39.4938 155.4063 65° Northeast  Level FlightAware Approximate
06:32AM 39.5515 155.5692 65° Northeast  Level FlightAware Approximate
06:33AM 39.6090 155.7323 65° Northeast  Level FlightAware Approximate
06:34AM 39.6662 155.8957 65° Northeast  Level FlightAware Approximate
06:35AM 39.7232 156.0594 66° East  Level FlightAware Approximate
06:36AM 39.7800 156.2233 66° East  Level FlightAware Approximate
06:37AM 39.8365 156.3876 66° East  Level FlightAware Approximate
06:38AM 39.8928 156.5520 66° East  Level FlightAware Approximate
06:39AM 39.9489 156.7168 66° East  Level FlightAware Approximate
06:40AM 40.0048 156.8818 66° East  Level FlightAware Approximate
06:41AM 40.0604 157.0471 66° East  Level FlightAware Approximate
06:42AM 40.1158 157.2127 66° East  Level FlightAware Approximate
06:43AM 40.1710 157.3785 66° East  Level FlightAware Approximate
06:44AM 40.2259 157.5446 67° East  Level FlightAware Approximate
06:45AM 40.2805 157.7110 67° East  Level FlightAware Approximate
06:46AM 40.3350 157.8776 67° East  Level FlightAware Approximate
06:47AM 40.3892 158.0445 67° East  Level FlightAware Approximate
06:48AM 40.4431 158.2117 67° East  Level FlightAware Approximate
06:49AM 40.4968 158.3792 67° East  Level FlightAware Approximate
06:50AM 40.5503 158.5469 67° East  Level FlightAware Approximate
06:51AM 40.6035 158.7149 67° East  Level FlightAware Approximate
06:52AM 40.6565 158.8831 67° East  Level FlightAware Approximate
06:53AM 40.7093 159.0516 68° East  Level FlightAware Approximate
06:54AM 40.7637 159.2193 72° East  Level Estimated
06:55AM 40.8092 159.3918 71° East  Level FlightAware Approximate
06:56AM 40.8545 159.5644 71° East  Level FlightAware Approximate
06:57AM 40.8995 159.7373 71° East  Level FlightAware Approximate
06:58AM 40.9442 159.9104 71° East  Level FlightAware Approximate
06:59AM 40.9887 160.0837 71° East  Level FlightAware Approximate
07:00AM 41.0348 160.2648 71° East  Level FlightAware Approximate
07:01AM 41.0807 160.4461 71° East  Level FlightAware Approximate
07:02AM 41.1263 160.6277 72° East  Level FlightAware Approximate
07:03AM 41.1715 160.8096 72° East  Level FlightAware Approximate
07:04AM 41.2165 160.9916 72° East  Level FlightAware Approximate
07:05AM 41.2612 161.1740 72° East  Level FlightAware Approximate
07:06AM 41.3056 161.3565 72° East  Level FlightAware Approximate
07:07AM 41.3498 161.5394 72° East  Level FlightAware Approximate
07:08AM 41.3936 161.7224 72° East  Level FlightAware Approximate
07:09AM 41.4372 161.9058 72° East  Level FlightAware Approximate
07:10AM 41.4804 162.0893 72° East  Level FlightAware Approximate
07:11AM 41.5234 162.2731 73° East  Level FlightAware Approximate
07:12AM 41.5660 162.4572 73° East  Level FlightAware Approximate
07:13AM 41.6084 162.6415 73° East  Level FlightAware Approximate
07:14AM 41.6505 162.8260 73° East  Level FlightAware Approximate
07:15AM 41.6923 163.0108 73° East  Level FlightAware Approximate
07:16AM 41.7338 163.1958 73° East  Level FlightAware Approximate
07:17AM 41.7749 163.3811 73° East  Level FlightAware Approximate
07:18AM 41.8158 163.5666 73° East  Level FlightAware Approximate
07:19AM 41.8564 163.7523 74° East  Level FlightAware Approximate
07:20AM 41.8967 163.9383 74° East  Level FlightAware Approximate
07:21AM 41.9367 164.1245 74° East  Level FlightAware Approximate
07:22AM 41.9859 164.3068 75° East  Level Estimated
07:22AM 42.3667 166.3167 76° East 546 628 38,000  Level Oakland Oceanic (ODAPS)
07:23AM 42.0241 164.4940 75° East  Level FlightAware Approximate
07:24AM 42.0619 164.6814 75° East  Level FlightAware Approximate
07:25AM 42.0994 164.8690 75° East  Level FlightAware Approximate
07:26AM 42.1366 165.0568 75° East  Level FlightAware Approximate
07:27AM 42.1735 165.2448 75° East  Level FlightAware Approximate
07:28AM 42.2102 165.4331 75° East  Level FlightAware Approximate
07:28AM 42.5667 167.4167 76° East 526 605 38,000  Level Oakland Oceanic (ODAPS)
07:29AM 42.5794 167.4716 76° East 546 628 38,000  Level FlightAware Transoceanic
07:30AM 42.6137 167.6649 77° East 546 628 38,000  Level FlightAware Transoceanic
07:31AM 42.6477 167.8584 77° East 546 628 38,000  Level FlightAware Transoceanic
07:32AM 42.6814 168.0520 77° East 546 628 38,000  Level FlightAware Transoceanic
07:33AM 42.7147 168.2459 77° East 546 628 38,000  Level FlightAware Transoceanic
07:34AM 42.7595 168.5194 77° East 526 605 38,000  Level FlightAware Transoceanic
07:35AM 42.7906 168.7038 77° East 526 605 38,000  Level FlightAware Transoceanic
07:36AM 42.8214 168.8884 77° East 526 605 38,000  Level FlightAware Transoceanic
07:37AM 42.8519 169.0733 77° East 526 605 38,000  Level FlightAware Transoceanic
07:38AM 42.8821 169.2582 78° East 526 605 38,000  Level FlightAware Transoceanic
07:39AM 42.9120 169.4434 78° East 526 605 38,000  Level FlightAware Transoceanic
07:40AM 42.9417 169.6288 78° East 526 605 38,000  Level FlightAware Transoceanic
07:41AM 42.9710 169.8143 78° East 526 605 38,000  Level FlightAware Transoceanic
07:41AM 43.0000 170.0000 79° East 543 625 38,000  Level Oakland Oceanic (ODAPS)
07:42AM 43.0000 170.0000 79° East 526 605 38,000  Level FlightAware Transoceanic
07:42AM 43.0167 170.1500 79° East 542 624 38,000  Level Oakland Oceanic (ODAPS)
07:43AM 43.0290 170.2003 79° East 526 605 38,000  Level FlightAware Transoceanic
07:44AM 43.0577 170.4009 79° East 526 605 38,000  Level FlightAware Transoceanic
07:45AM 43.0860 170.6016 79° East 526 605 38,000  Level FlightAware Transoceanic
07:46AM 43.1140 170.8025 79° East 526 605 38,000  Level FlightAware Transoceanic
07:47AM 43.1445 171.0246 79° East 543 625 38,000  Level FlightAware Transoceanic
07:48AM 43.1855 171.3620 80° East 542 624 38,000  Level FlightAware Transoceanic
07:49AM 43.2123 171.5646 80° East 542 624 38,000  Level FlightAware Transoceanic
07:50AM 43.2389 171.7674 80° East 542 624 38,000  Level FlightAware Transoceanic
07:51AM 43.2650 171.9704 80° East 542 624 38,000  Level FlightAware Transoceanic
07:52AM 43.2909 172.1736 80° East 542 624 38,000  Level FlightAware Transoceanic
07:53AM 43.3163 172.3769 80° East 542 624 38,000  Level FlightAware Transoceanic
07:54AM 43.3414 172.5804 80° East 542 624 38,000  Level FlightAware Transoceanic
07:55AM 43.3661 172.7840 81° East 542 624 38,000  Level FlightAware Transoceanic
07:56AM 43.3905 172.9879 81° East 542 624 38,000  Level FlightAware Transoceanic
07:56AM 43.3833 172.9333 81° East 543 625 38,000  Level Oakland Oceanic (ODAPS)
07:57AM 43.4145 173.1919 81° East 542 624 38,000  Level FlightAware Transoceanic
07:58AM 43.4381 173.3960 81° East 542 624 38,000  Level FlightAware Transoceanic
07:59AM 43.4614 173.6003 81° East 542 624 38,000  Level FlightAware Transoceanic
08:00AM 43.4843 173.8048 81° East 542 624 38,000  Level FlightAware Transoceanic
08:01AM 43.5069 174.0094 81° East 542 624 38,000  Level FlightAware Transoceanic
08:02AM 43.5237 174.1691 82° East 543 625 38,000  Level FlightAware Transoceanic
08:03AM 43.5457 174.3756 82° East 543 625 38,000  Level FlightAware Transoceanic
08:04AM 43.5675 174.5822 82° East 543 625 38,000  Level FlightAware Transoceanic
08:05AM 43.5888 174.7890 82° East 543 625 38,000  Level FlightAware Transoceanic
08:06AM 43.6098 174.9960 82° East 543 625 38,000  Level FlightAware Transoceanic
08:07AM 43.6304 175.2031 82° East 543 625 38,000  Level FlightAware Transoceanic
08:08AM 43.6506 175.4103 82° East 543 625 38,000  Level FlightAware Transoceanic
08:09AM 43.6705 175.6177 83° East 543 625 38,000  Level FlightAware Transoceanic
08:10AM 43.6899 175.8252 83° East 543 625 38,000  Level FlightAware Transoceanic
08:10AM 43.6833 175.7333 83° East 538 619 38,000  Level Oakland Oceanic (ODAPS)
08:11AM 43.7090 176.0328 83° East 543 625 38,000  Level FlightAware Transoceanic
08:12AM 43.7278 176.2406 83° East 543 625 38,000  Level FlightAware Transoceanic
08:13AM 43.7461 176.4485 83° East 543 625 38,000  Level FlightAware Transoceanic
08:14AM 43.7641 176.6565 83° East 543 625 38,000  Level FlightAware Transoceanic
08:15AM 43.7817 176.8647 83° East 543 625 38,000  Level FlightAware Transoceanic
08:16AM 43.7900 176.9476 83° East 538 619 38,000  Level FlightAware Transoceanic
08:17AM 43.8065 177.1504 84° East 538 619 38,000  Level FlightAware Transoceanic
08:18AM 43.8227 177.3533 84° East 538 619 38,000  Level FlightAware Transoceanic
08:19AM 43.8385 177.5563 84° East 538 619 38,000  Level FlightAware Transoceanic
08:20AM 43.8539 177.7594 84° East 538 619 38,000  Level FlightAware Transoceanic
08:21AM 43.8690 177.9626 84° East 538 619 38,000  Level FlightAware Transoceanic
08:22AM 43.8837 178.1659 84° East 538 619 38,000  Level FlightAware Transoceanic
08:23AM 43.8981 178.3694 84° East 538 619 38,000  Level FlightAware Transoceanic
08:23AM 43.9167 178.6167 85° East 548 631 38,000  Level Oakland Oceanic (ODAPS)
08:24AM 43.9121 178.5729 85° East 538 619 38,000  Level FlightAware Transoceanic
08:25AM 43.9258 178.7765 85° East 538 619 38,000  Level FlightAware Transoceanic
08:26AM 43.9390 178.9802 85° East 538 619 38,000  Level FlightAware Transoceanic
08:27AM 43.9520 179.1840 85° East 538 619 38,000  Level FlightAware Transoceanic
08:28AM 43.9645 179.3879 85° East 538 619 38,000  Level FlightAware Transoceanic
08:29AM 43.9767 179.5918 85° East 538 619 38,000  Level FlightAware Transoceanic
08:30AM 44.0000 -180.0000 79° East 548 631 38,000  Level FlightAware Transoceanic
08:30AM 44.0000 180.0000 79° East 554 638 38,000  Level Oakland Oceanic (ODAPS)
08:31AM 44.0290 -179.7998 79° East 548 631 38,000  Level FlightAware Transoceanic
08:32AM 44.0577 -179.5994 79° East 548 631 38,000  Level FlightAware Transoceanic
08:33AM 44.0860 -179.3988 79° East 548 631 38,000  Level FlightAware Transoceanic
08:34AM 44.1140 -179.1980 79° East 548 631 38,000  Level FlightAware Transoceanic
08:35AM 44.1417 -178.9970 79° East 548 631 38,000  Level FlightAware Transoceanic
08:36AM 44.1758 -178.7444 79° East 554 638 38,000  Level FlightAware Transoceanic
08:37AM 44.2038 -178.5344 80° East 554 638 38,000  Level FlightAware Transoceanic
08:37AM 44.2167 -178.4667 80° East 558 642 38,000  Level Oakland Oceanic (ODAPS)
08:38AM 44.2314 -178.3242 80° East 554 638 38,000  Level FlightAware Transoceanic
08:39AM 44.2586 -178.1139 80° East 554 638 38,000  Level FlightAware Transoceanic
08:40AM 44.2854 -177.9033 80° East 554 638 38,000  Level FlightAware Transoceanic
08:41AM 44.3118 -177.6926 80° East 554 638 38,000  Level FlightAware Transoceanic
08:42AM 44.3379 -177.4816 80° East 554 638 38,000  Level FlightAware Transoceanic
08:43AM 44.3635 -177.2705 80° East 554 638 38,000  Level FlightAware Transoceanic
08:44AM 44.3777 -177.1803 81° East 558 642 38,000  Level FlightAware Transoceanic
08:45AM 44.4031 -176.9652 81° East 558 642 38,000  Level FlightAware Transoceanic
08:46AM 44.4281 -176.7499 81° East 558 642 38,000  Level FlightAware Transoceanic
08:47AM 44.4527 -176.5345 81° East 558 642 38,000  Level FlightAware Transoceanic
08:48AM 44.4769 -176.3188 81° East 558 642 38,000  Level FlightAware Transoceanic
08:49AM 44.5007 -176.1030 81° East 558 642 38,000  Level FlightAware Transoceanic
08:50AM 44.5241 -175.8871 81° East 558 642 38,000  Level FlightAware Transoceanic
08:51AM 44.5471 -175.6709 82° East 558 642 38,000 1,140 Level FlightAware Transoceanic
08:51AM 44.5500 -175.5667 82° East 529 609 40,000  Climbing Oakland Oceanic (ODAPS)
08:52AM 44.5697 -175.4546 82° East 558 642 38,000 -1,560 Descending FlightAware Transoceanic
08:53AM 44.5919 -175.2381 82° East 558 642 38,000  Level FlightAware Transoceanic
08:54AM 44.6137 -175.0215 82° East 558 642 38,000  Level FlightAware Transoceanic
08:55AM 44.6350 -174.8046 82° East 558 642 38,000  Level FlightAware Transoceanic
08:56AM 44.6559 -174.5877 82° East 558 642 38,000  Level FlightAware Transoceanic
08:57AM 44.6765 -174.3705 83° East 558 642 38,000 960 Level FlightAware Transoceanic
08:58AM 44.6733 -174.3375 82° East 529 609 40,000 960 Climbing FlightAware Transoceanic
08:59AM 44.6926 -174.1322 83° East 529 609 40,000  Level FlightAware Transoceanic
09:00AM 44.7115 -173.9267 83° East 529 609 40,000  Level FlightAware Transoceanic
09:01AM 44.7300 -173.7211 83° East 529 609 40,000  Level FlightAware Transoceanic
09:02AM 44.7482 -173.5153 83° East 529 609 40,000  Level FlightAware Transoceanic
09:03AM 44.7660 -173.3094 83° East 529 609 40,000  Level FlightAware Transoceanic
09:04AM 44.7834 -173.1034 83° East 529 609 40,000  Level FlightAware Transoceanic
09:05AM 44.8004 -172.8973 83° East 529 609 40,000  Level FlightAware Transoceanic
09:05AM 44.8167 -172.7333 84° East 528 608 40,000  Level Oakland Oceanic (ODAPS)
09:06AM 44.8171 -172.6911 84° East 529 609 40,000  Level FlightAware Transoceanic
09:07AM 44.8334 -172.4847 84° East 529 609 40,000  Level FlightAware Transoceanic
09:08AM 44.8493 -172.2782 84° East 529 609 40,000  Level FlightAware Transoceanic
09:09AM 44.8649 -172.0716 84° East 529 609 40,000  Level FlightAware Transoceanic
09:10AM 44.8801 -171.8649 84° East 529 609 40,000  Level FlightAware Transoceanic
09:11AM 44.9032 -171.5641 84° East 528 608 40,000  Level FlightAware Transoceanic
09:12AM 44.9165 -171.3689 85° East 528 608 40,000  Level FlightAware Transoceanic
09:13AM 44.9294 -171.1736 85° East 528 608 40,000  Level FlightAware Transoceanic
09:14AM 44.9420 -170.9782 85° East 528 608 40,000  Level FlightAware Transoceanic
09:15AM 44.9543 -170.7827 85° East 528 608 40,000  Level FlightAware Transoceanic
09:16AM 44.9662 -170.5871 85° East 528 608 40,000  Level FlightAware Transoceanic
09:17AM 44.9778 -170.3915 85° East 528 608 40,000  Level FlightAware Transoceanic
09:18AM 44.9891 -170.1958 85° East 528 608 40,000  Level FlightAware Transoceanic
09:18AM 45.0000 -170.0000 94° East 535 616 40,000  Level Oakland Oceanic (ODAPS)
09:19AM 45.0000 -170.0000 94° East 528 608 40,000  Level FlightAware Transoceanic
09:19AM 44.9833 -169.8167 95° East 535 616 40,000  Level Oakland Oceanic (ODAPS)
09:20AM 44.9884 -169.7929 95° East 528 608 40,000  Level FlightAware Transoceanic
09:21AM 44.9765 -169.5860 95° East 528 608 40,000  Level FlightAware Transoceanic
09:22AM 44.9641 -169.3791 95° East 528 608 40,000  Level FlightAware Transoceanic
09:23AM 44.9514 -169.1723 95° East 528 608 40,000  Level FlightAware Transoceanic
09:24AM 44.9383 -168.9656 95° East 528 608 40,000  Level FlightAware Transoceanic
09:25AM 44.9068 -168.5733 95° East 535 616 40,000  Level FlightAware Transoceanic
09:26AM 44.8927 -168.3664 96° East 535 616 40,000  Level FlightAware Transoceanic
09:27AM 44.8783 -168.1596 96° East 535 616 40,000  Level FlightAware Transoceanic
09:28AM 44.8635 -167.9529 96° East 535 616 40,000  Level FlightAware Transoceanic
09:29AM 44.8483 -167.7463 96° East 535 616 40,000  Level FlightAware Transoceanic
09:30AM 44.8328 -167.5398 96° East 535 616 40,000  Level FlightAware Transoceanic
09:31AM 44.8168 -167.3335 96° East 535 616 40,000  Level FlightAware Transoceanic
09:32AM 44.8005 -167.1272 96° East 535 616 40,000  Level FlightAware Transoceanic
09:33AM 44.7839 -166.9211 97° East 535 616 40,000  Level FlightAware Transoceanic
09:33AM 44.7833 -166.9500 97° East 530 610 40,000  Level Oakland Oceanic (ODAPS)
09:34AM 44.7668 -166.7151 97° East 535 616 40,000  Level FlightAware Transoceanic
09:35AM 44.7494 -166.5092 97° East 535 616 40,000  Level FlightAware Transoceanic
09:36AM 44.7317 -166.3035 97° East 535 616 40,000  Level FlightAware Transoceanic
09:37AM 44.7135 -166.0978 97° East 535 616 40,000  Level FlightAware Transoceanic
09:38AM 44.6950 -165.8923 97° East 535 616 40,000  Level FlightAware Transoceanic
09:39AM 44.6759 -165.7107 97° East 530 610 40,000  Level FlightAware Transoceanic
09:40AM 44.6567 -165.5046 98° East 530 610 40,000  Level FlightAware Transoceanic
09:41AM 44.6371 -165.2987 98° East 530 610 40,000  Level FlightAware Transoceanic
09:42AM 44.6172 -165.0929 98° East 530 610 40,000  Level FlightAware Transoceanic
09:43AM 44.5969 -164.8872 98° East 530 610 40,000  Level FlightAware Transoceanic
09:44AM 44.5762 -164.6817 98° East 530 610 40,000  Level FlightAware Transoceanic
09:45AM 44.5551 -164.4763 98° East 530 610 40,000  Level FlightAware Transoceanic
09:46AM 44.5337 -164.2711 98° East 530 610 40,000  Level FlightAware Transoceanic
09:47AM 44.5119 -164.0660 99° East 530 610 40,000  Level FlightAware Transoceanic
09:47AM 44.5167 -164.1333 98° East 526 605 40,000  Level Oakland Oceanic (ODAPS)
09:48AM 44.4898 -163.8611 99° East 530 610 40,000  Level FlightAware Transoceanic
09:49AM 44.4673 -163.6563 99° East 530 610 40,000  Level FlightAware Transoceanic
09:50AM 44.4444 -163.4517 99° East 530 610 40,000  Level FlightAware Transoceanic
09:51AM 44.4211 -163.2473 99° East 530 610 40,000  Level FlightAware Transoceanic
09:52AM 44.3975 -163.0430 99° East 530 610 40,000  Level FlightAware Transoceanic
09:53AM 44.3843 -162.9451 99° East 526 605 40,000  Level FlightAware Transoceanic
09:54AM 44.3610 -162.7476 99° East 526 605 40,000  Level FlightAware Transoceanic
09:55AM 44.3374 -162.5502 100° East 526 605 40,000  Level FlightAware Transoceanic
09:56AM 44.3135 -162.3531 100° East 526 605 40,000  Level FlightAware Transoceanic
09:57AM 44.2892 -162.1560 100° East 526 605 40,000  Level FlightAware Transoceanic
09:58AM 44.2646 -161.9592 100° East 526 605 40,000  Level FlightAware Transoceanic
09:59AM 44.2397 -161.7625 100° East 526 605 40,000  Level FlightAware Transoceanic
10:00AM 44.2144 -161.5659 100° East 526 605 40,000  Level FlightAware Transoceanic
10:01AM 44.1888 -161.3696 100° East 526 605 40,000  Level FlightAware Transoceanic
10:01AM 44.1833 -161.3500 100° East 518 596 40,000  Level Oakland Oceanic (ODAPS)
10:02AM 44.1628 -161.1734 101° East 526 605 40,000  Level FlightAware Transoceanic
10:03AM 44.1365 -160.9774 101° East 526 605 40,000  Level FlightAware Transoceanic
10:04AM 44.1099 -160.7816 101° East 526 605 40,000  Level FlightAware Transoceanic
10:05AM 44.0829 -160.5859 101° East 526 605 40,000  Level FlightAware Transoceanic
10:06AM 44.0556 -160.3904 101° East 526 605 40,000  Level FlightAware Transoceanic
10:07AM 44.0272 -160.1923 101° East 518 596 40,000  Level FlightAware Transoceanic
10:08AM 44.0000 -160.0000 87° East 518 596 40,000  Level FlightAware Transoceanic
10:08AM 44.0000 -160.0000 87° East 519 597 40,000  Level Oakland Oceanic (ODAPS)
10:09AM 44.0085 -159.8005 87° East 518 596 40,000  Level FlightAware Transoceanic
10:10AM 44.0168 -159.6009 87° East 518 596 40,000  Level FlightAware Transoceanic
10:11AM 44.0246 -159.4012 87° East 518 596 40,000  Level FlightAware Transoceanic
10:12AM 44.0321 -159.2015 87° East 518 596 40,000  Level FlightAware Transoceanic
10:13AM 44.0393 -159.0018 87° East 518 596 40,000  Level FlightAware Transoceanic
10:14AM 44.0461 -158.8020 87° East 519 597 40,000  Level FlightAware Transoceanic
10:14AM 44.0500 -158.6500 87° East 513 590 40,000  Level Oakland Oceanic (ODAPS)
10:15AM 44.0525 -158.6021 87° East 519 597 40,000  Level FlightAware Transoceanic
10:16AM 44.0587 -158.4023 88° East 519 597 40,000  Level FlightAware Transoceanic
10:17AM 44.0644 -158.2023 88° East 519 597 40,000  Level FlightAware Transoceanic
10:18AM 44.0698 -158.0024 88° East 519 597 40,000  Level FlightAware Transoceanic
10:19AM 44.0749 -157.8024 88° East 519 597 40,000  Level FlightAware Transoceanic
10:20AM 44.0796 -157.6023 88° East 519 597 40,000  Level FlightAware Transoceanic
10:21AM 44.0816 -157.4710 88° East 513 590 40,000  Level FlightAware Transoceanic
10:22AM 44.0857 -157.2743 88° East 513 590 40,000  Level FlightAware Transoceanic
10:23AM 44.0895 -157.0777 89° East 513 590 40,000  Level FlightAware Transoceanic
10:24AM 44.0929 -156.8810 89° East 513 590 40,000  Level FlightAware Transoceanic
10:25AM 44.0960 -156.6843 89° East 513 590 40,000  Level FlightAware Transoceanic
10:26AM 44.0987 -156.4876 89° East 513 590 40,000  Level FlightAware Transoceanic
10:27AM 44.1012 -156.2909 89° East 513 590 40,000  Level FlightAware Transoceanic
10:28AM 44.1032 -156.0941 89° East 513 590 40,000  Level FlightAware Transoceanic
10:28AM 44.1000 -155.9167 89° East 510 587 40,000  Level Oakland Oceanic (ODAPS)
10:29AM 44.1049 -155.8974 89° East 513 590 40,000  Level FlightAware Transoceanic
10:30AM 44.1063 -155.7006 90° East 513 590 40,000  Level FlightAware Transoceanic
10:31AM 44.1074 -155.5039 90° East 513 590 40,000  Level FlightAware Transoceanic
10:32AM 44.1081 -155.3071 90° East 513 590 40,000  Level FlightAware Transoceanic
10:33AM 44.1085 -155.1103 90° East 513 590 40,000  Level FlightAware Transoceanic
10:34AM 44.1046 -154.9296 90° East 510 587 40,000  Level FlightAware Transoceanic
10:35AM 44.1045 -154.7322 90° East 510 587 40,000  Level FlightAware Transoceanic
10:36AM 44.1040 -154.5348 90° East 510 587 40,000  Level FlightAware Transoceanic
10:37AM 44.1032 -154.3374 90° East 510 587 40,000  Level FlightAware Transoceanic
10:38AM 44.1021 -154.1400 91° East 510 587 40,000  Level FlightAware Transoceanic
10:39AM 44.1006 -153.9426 91° East 510 587 40,000  Level FlightAware Transoceanic
10:40AM 44.0988 -153.7452 91° East 510 587 40,000  Level FlightAware Transoceanic
10:41AM 44.0967 -153.5478 91° East 510 587 40,000  Level FlightAware Transoceanic
10:42AM 44.0942 -153.3505 91° East 510 587 40,000  Level FlightAware Transoceanic
10:42AM 44.1000 -153.1833 91° East 510 587 40,000  Level Oakland Oceanic (ODAPS)
10:43AM 44.0914 -153.1532 91° East 510 587 40,000  Level FlightAware Transoceanic
10:44AM 44.0882 -152.9558 91° East 510 587 40,000  Level FlightAware Transoceanic
10:45AM 44.0847 -152.7585 91° East 510 587 40,000  Level FlightAware Transoceanic
10:46AM 44.0808 -152.5613 92° East 510 587 40,000  Level FlightAware Transoceanic
10:47AM 44.0766 -152.3640 92° East 510 587 40,000  Level FlightAware Transoceanic
10:48AM 44.0748 -152.0586 92° East 510 587 40,000  Level FlightAware Transoceanic
10:49AM 44.0695 -151.8713 92° East 510 587 40,000  Level FlightAware Transoceanic
10:50AM 44.0639 -151.6840 92° East 510 587 40,000  Level FlightAware Transoceanic
10:51AM 44.0581 -151.4967 93° East 510 587 40,000  Level FlightAware Transoceanic
10:52AM 44.0519 -151.3094 93° East 510 587 40,000  Level FlightAware Transoceanic
10:53AM 44.0454 -151.1223 93° East 510 587 40,000  Level FlightAware Transoceanic
10:54AM 44.0386 -150.9351 93° East 510 587 40,000  Level FlightAware Transoceanic
10:55AM 44.0315 -150.7480 93° East 510 587 40,000  Level FlightAware Transoceanic
10:56AM 44.0241 -150.5609 93° East 510 587 40,000  Level FlightAware Transoceanic
10:56AM 44.0167 -150.4833 93° East 508 585 40,000  Level Oakland Oceanic (ODAPS)
10:57AM 44.0163 -150.3739 93° East 510 587 40,000  Level FlightAware Transoceanic
10:58AM 44.0083 -150.1869 93° East 510 587 40,000  Level FlightAware Transoceanic
10:59AM 44.0000 -150.0000 94° East 510 587 40,000  Level FlightAware Transoceanic
10:59AM 44.0000 -150.0000 94° East 509 586 40,000  Level Oakland Oceanic (ODAPS)
11:00AM 43.9889 -149.8011 95° East 510 587 40,000  Level FlightAware Transoceanic
11:01AM 43.9774 -149.6024 95° East 510 587 40,000  Level FlightAware Transoceanic
11:02AM 43.9655 -149.4037 95° East 508 585 40,000  Level FlightAware Transoceanic
11:03AM 43.9534 -149.2051 95° East 508 585 40,000  Level FlightAware Transoceanic
11:04AM 43.9409 -149.0065 95° East 508 585 40,000  Level FlightAware Transoceanic
11:05AM 43.9295 -148.8310 95° East 509 586 40,000  Level FlightAware Transoceanic
11:06AM 43.9166 -148.6364 95° East 509 586 40,000  Level FlightAware Transoceanic
11:07AM 43.9034 -148.4420 95° East 509 586 40,000  Level FlightAware Transoceanic
11:08AM 43.8898 -148.2476 96° East 509 586 40,000  Level FlightAware Transoceanic
11:09AM 43.8759 -148.0533 96° East 509 586 40,000  Level FlightAware Transoceanic
11:10AM 43.8617 -147.8591 96° East 509 586 40,000  Level FlightAware Transoceanic
11:10AM 43.8500 -147.7833 96° East 512 589 40,000  Level Oakland Oceanic (ODAPS)
11:11AM 43.8471 -147.6650 96° East 509 586 40,000  Level FlightAware Transoceanic
11:12AM 43.8322 -147.4710 96° East 509 586 40,000  Level FlightAware Transoceanic
11:13AM 43.8170 -147.2771 96° East 509 586 40,000  Level FlightAware Transoceanic
11:14AM 43.8015 -147.0833 96° East 509 586 40,000  Level FlightAware Transoceanic
11:15AM 43.7856 -146.8896 97° East 509 586 40,000  Level FlightAware Transoceanic
11:16AM 43.7564 -146.6028 97° East 512 589 40,000  Level FlightAware Transoceanic
11:17AM 43.7396 -146.4064 97° East 512 589 40,000  Level FlightAware Transoceanic
11:18AM 43.7225 -146.2102 97° East 512 589 40,000  Level FlightAware Transoceanic
11:19AM 43.7050 -146.0140 97° East 512 589 40,000  Level FlightAware Transoceanic
11:20AM 43.6873 -145.8180 97° East 512 589 40,000  Level FlightAware Transoceanic
11:21AM 43.6691 -145.6220 97° East 512 589 40,000  Level FlightAware Transoceanic
11:22AM 43.6507 -145.4262 97° East 512 589 40,000  Level FlightAware Transoceanic
11:23AM 43.6319 -145.2305 98° East 512 589 40,000  Level FlightAware Transoceanic
11:24AM 43.6128 -145.0350 98° East 512 589 40,000 780 Level FlightAware Transoceanic
11:24AM 43.6167 -145.1167 98° East 508 585 41,000  Climbing Oakland Oceanic (ODAPS)
11:25AM 43.5933 -144.8395 98° East 512 589 40,000 -600 Descending FlightAware Transoceanic
11:26AM 43.5735 -144.6442 98° East 512 589 40,000  Level FlightAware Transoceanic
11:27AM 43.5534 -144.4491 98° East 512 589 40,000  Level FlightAware Transoceanic
11:28AM 43.5329 -144.2540 98° East 512 589 40,000  Level FlightAware Transoceanic
11:29AM 43.5121 -144.0591 98° East 512 589 40,000 480 Level FlightAware Transoceanic
11:30AM 43.4994 -143.9709 98° East 508 585 41,000 480 Climbing FlightAware Transoceanic
11:31AM 43.4788 -143.7804 99° East 508 585 41,000  Level FlightAware Transoceanic
11:32AM 43.4578 -143.5900 99° East 508 585 41,000  Level FlightAware Transoceanic
11:33AM 43.4365 -143.3998 99° East 508 585 41,000  Level FlightAware Transoceanic
11:34AM 43.4149 -143.2097 99° East 508 585 41,000  Level FlightAware Transoceanic
11:35AM 43.3930 -143.0197 99° East 508 585 41,000  Level FlightAware Transoceanic
11:36AM 43.3708 -142.8298 99° East 508 585 41,000  Level FlightAware Transoceanic
11:37AM 43.3482 -142.6401 99° East 508 585 41,000  Level FlightAware Transoceanic
11:38AM 43.3254 -142.4506 99° East 508 585 41,000  Level FlightAware Transoceanic
11:38AM 43.3333 -142.4667 100° East 507 583 41,000  Level Oakland Oceanic (ODAPS)
11:39AM 43.3022 -142.2612 100° East 508 585 41,000  Level FlightAware Transoceanic
11:40AM 43.2787 -142.0719 100° East 508 585 41,000  Level FlightAware Transoceanic
11:41AM 43.2550 -141.8828 100° East 508 585 41,000  Level FlightAware Transoceanic
11:42AM 43.2309 -141.6938 100° East 508 585 41,000  Level FlightAware Transoceanic
11:43AM 43.2064 -141.5050 100° East 508 585 41,000  Level FlightAware Transoceanic
11:44AM 43.1861 -141.3249 100° East 507 583 41,000  Level FlightAware Transoceanic
11:45AM 43.1604 -141.1351 101° East 507 583 41,000  Level FlightAware Transoceanic
11:46AM 43.1345 -140.9455 101° East 507 583 41,000  Level FlightAware Transoceanic
11:47AM 43.1082 -140.7561 101° East 507 583 41,000  Level FlightAware Transoceanic
11:48AM 43.0816 -140.5668 101° East 507 583 41,000  Level FlightAware Transoceanic
11:49AM 43.0547 -140.3777 101° East 507 583 41,000  Level FlightAware Transoceanic
11:50AM 43.0275 -140.1888 101° East 507 583 41,000  Level FlightAware Transoceanic
11:51AM 43.0000 -140.0000 108° East 507 583 41,000  Level FlightAware Transoceanic
11:51AM 43.0000 -140.0000 108° East 505 581 41,000  Level Oakland Oceanic (ODAPS)
11:51AM 42.9833 -139.9000 109° East 505 581 41,000  Level Oakland Oceanic (ODAPS)
11:52AM 42.9551 -139.8167 109° East 507 583 41,000  Level FlightAware Transoceanic
11:53AM 42.9099 -139.6337 109° East 507 583 41,000  Level FlightAware Transoceanic
11:54AM 42.8644 -139.4509 109° East 507 583 41,000  Level FlightAware Transoceanic
11:55AM 42.8186 -139.2684 109° East 507 583 41,000  Level FlightAware Transoceanic
11:56AM 42.7725 -139.0862 109° East 507 583 41,000  Level FlightAware Transoceanic
11:57AM 42.7309 -138.9230 109° East 505 581 41,000  Level FlightAware Transoceanic
11:58AM 42.7103 -138.8154 109° East 505 581 41,000  Level FlightAware Transoceanic
11:59AM 42.6639 -138.6356 109° East 505 581 41,000  Level FlightAware Transoceanic
12:00PM 42.6171 -138.4561 110° East 505 581 41,000  Level FlightAware Transoceanic
12:01PM 42.5700 -138.2768 110° East 505 581 41,000  Level FlightAware Transoceanic
12:02PM 42.5227 -138.0978 110° East 505 581 41,000  Level FlightAware Transoceanic
12:03PM 42.4751 -137.9190 110° East 505 581 41,000  Level FlightAware Transoceanic
12:04PM 42.4272 -137.7405 110° East 505 581 41,000  Level FlightAware Transoceanic
12:05PM 42.3791 -137.5623 110° East 505 581 41,000  Level FlightAware Transoceanic
12:05PM 42.3333 -137.4167 110° East 506 582 41,000  Level Oakland Oceanic (ODAPS)
12:06PM 42.3306 -137.3844 110° East 505 581 41,000  Level FlightAware Transoceanic
12:07PM 42.2819 -137.2068 110° East 505 581 41,000  Level FlightAware Transoceanic
12:08PM 42.2329 -137.0294 111° Southeast 505 581 41,000  Level FlightAware Transoceanic
12:09PM 42.1837 -136.8523 111° Southeast 505 581 41,000  Level FlightAware Transoceanic
12:10PM 42.1341 -136.6755 111° Southeast 505 581 41,000  Level FlightAware Transoceanic
12:11PM 42.0843 -136.4989 111° Southeast 505 581 41,000  Level FlightAware Transoceanic
12:12PM 42.0368 -136.3503 111° Southeast 506 582 41,000  Level FlightAware Transoceanic
12:13PM 41.9865 -136.1735 111° Southeast 506 582 41,000  Level FlightAware Transoceanic
12:14PM 41.9358 -135.9970 111° Southeast 506 582 41,000  Level FlightAware Transoceanic
12:15PM 41.8849 -135.8208 111° Southeast 506 582 41,000  Level FlightAware Transoceanic
12:16PM 41.8338 -135.6449 111° Southeast 506 582 41,000  Level FlightAware Transoceanic
12:17PM 41.7823 -135.4693 112° Southeast 506 582 41,000  Level FlightAware Transoceanic
12:18PM 41.7306 -135.2939 112° Southeast 506 582 41,000  Level FlightAware Transoceanic
12:19PM 41.6786 -135.1188 112° Southeast 506 582 41,000  Level FlightAware Transoceanic
12:19PM 41.6500 -135.0000 112° Southeast 502 578 41,000  Level Oakland Oceanic (ODAPS)
12:20PM 41.6264 -134.9440 112° Southeast 506 582 41,000  Level FlightAware Transoceanic
12:21PM 41.5739 -134.7695 112° Southeast 506 582 41,000  Level FlightAware Transoceanic
12:22PM 41.5211 -134.5953 112° Southeast 506 582 41,000  Level FlightAware Transoceanic
12:23PM 41.4680 -134.4214 112° Southeast 506 582 41,000  Level FlightAware Transoceanic
12:24PM 41.4147 -134.2477 112° Southeast 506 582 41,000  Level FlightAware Transoceanic
12:25PM 41.3612 -134.0744 112° Southeast 506 582 41,000  Level FlightAware Transoceanic
12:26PM 41.3265 -133.9451 113° Southeast 502 578 41,000  Level FlightAware Transoceanic
12:27PM 41.2717 -133.7704 113° Southeast 502 578 41,000  Level FlightAware Transoceanic
12:28PM 41.2166 -133.5959 113° Southeast 502 578 41,000  Level FlightAware Transoceanic
12:29PM 41.1612 -133.4217 113° Southeast 502 578 41,000  Level FlightAware Transoceanic
12:30PM 41.1056 -133.2478 113° Southeast 502 578 41,000  Level FlightAware Transoceanic
12:31PM 41.0497 -133.0742 113° Southeast 502 578 41,000  Level FlightAware Transoceanic
12:32PM 40.9935 -132.9009 113° Southeast 502 578 41,000  Level FlightAware Transoceanic
12:33PM 40.9371 -132.7278 113° Southeast 502 578 41,000  Level FlightAware Transoceanic
12:33PM 40.9167 -132.6667 113° Southeast 502 578 41,000  Level Oakland Oceanic (ODAPS)
12:34PM 40.8804 -132.5551 114° Southeast 502 578 41,000  Level FlightAware Transoceanic
12:35PM 40.8235 -132.3827 114° Southeast 502 578 41,000  Level FlightAware Transoceanic
12:36PM 40.7663 -132.2106 114° Southeast 502 578 41,000  Level FlightAware Transoceanic
12:37PM 40.7089 -132.0388 114° Southeast 502 578 41,000  Level FlightAware Transoceanic
12:38PM 40.6512 -131.8672 114° Southeast 502 578 41,000  Level FlightAware Transoceanic
12:39PM 40.5801 -131.6581 114° Southeast 502 578 41,000  Level FlightAware Transoceanic
12:40PM 40.5232 -131.4910 114° Southeast 502 578 41,000  Level FlightAware Transoceanic
12:41PM 40.4660 -131.3242 114° Southeast 502 578 41,000  Level FlightAware Transoceanic
12:42PM 40.4086 -131.1577 114° Southeast 502 578 41,000  Level FlightAware Transoceanic
12:43PM 40.3509 -130.9915 115° Southeast 502 578 41,000  Level FlightAware Transoceanic
12:44PM 40.2930 -130.8255 115° Southeast 502 578 41,000  Level FlightAware Transoceanic
12:45PM 40.2349 -130.6598 115° Southeast 502 578 41,000  Level FlightAware Transoceanic
12:46PM 40.1765 -130.4944 115° Southeast 502 578 41,000  Level FlightAware Transoceanic
12:47PM 40.1179 -130.3293 115° Southeast 502 578 41,000  Level FlightAware Transoceanic
12:47PM 40.1333 -130.3667 115° Southeast 494 568 41,000  Level Oakland Oceanic (ODAPS)
12:48PM 40.0591 -130.1645 115° Southeast 502 578 41,000  Level FlightAware Transoceanic
12:49PM 40.0000 -130.0000 122° Southeast 502 578 41,000  Level FlightAware Transoceanic
12:49PM 40.0000 -130.0000 122° Southeast 504 580 41,000  Level Oakland Oceanic (ODAPS)
12:50PM 39.9252 -129.8469 123° Southeast 502 578 41,000  Level FlightAware Transoceanic
12:51PM 39.8502 -129.6941 123° Southeast 502 578 41,000  Level FlightAware Transoceanic
12:52PM 39.7750 -129.5416 123° Southeast 502 578 41,000  Level FlightAware Transoceanic
12:53PM 39.7631 -129.5175 123° Southeast 494 568 41,000  Level FlightAware Transoceanic
12:54PM 39.6837 -129.3575 123° Southeast 494 568 41,000  Level FlightAware Transoceanic
12:55PM 39.6040 -129.1978 123° Southeast 494 568 41,000  Level FlightAware Transoceanic
12:56PM 39.5242 -129.0384 123° Southeast 504 580 41,000  Level FlightAware Transoceanic
12:57PM 39.4441 -128.8795 123° Southeast 504 580 41,000  Level FlightAware Transoceanic
12:58PM 39.3638 -128.7208 123° Southeast 504 580 41,000  Level FlightAware Transoceanic
12:59PM 39.2833 -128.5626 123° Southeast 504 580 41,000  Level FlightAware Transoceanic
01:00PM 39.2026 -128.4047 123° Southeast 504 580 41,000  Level FlightAware Transoceanic
01:01PM 39.1216 -128.2472 124° Southeast 504 580 41,000  Level FlightAware Transoceanic
01:01PM 39.1167 -128.2500 123° Southeast 497 572 41,000  Level Oakland Oceanic (ODAPS)
01:02PM 39.0405 -128.0900 124° Southeast 504 580 41,000  Level FlightAware Transoceanic
01:03PM 38.9591 -127.9332 124° Southeast 504 580 41,000  Level FlightAware Transoceanic
01:04PM 38.8776 -127.7768 124° Southeast 504 580 41,000  Level FlightAware Transoceanic
01:05PM 38.7958 -127.6207 124° Southeast 504 580 41,000  Level FlightAware Transoceanic
01:06PM 38.7138 -127.4650 124° Southeast 504 580 41,000  Level FlightAware Transoceanic
01:06PM 38.6647 -127.4444 111° Southeast 499 574 41,000  Level Oakland Center
01:07PM 38.6848 -127.4141 124° Southeast 497 572 41,000  Level FlightAware Transoceanic
01:07PM 38.5858 -127.2981 125° Southeast 501 577 41,000  Level Oakland Center
01:08PM 38.6123 -127.2758 124° Southeast 497 572 41,000  Level FlightAware Transoceanic
01:08PM 38.5086 -127.1519 124° Southeast 499 574 41,000  Level Oakland Center
01:09PM 38.5395 -127.1378 124° Southeast 497 572 41,000  Level FlightAware Transoceanic
01:10PM 38.4667 -127.0000 111° Southeast 497 572 41,000  Level FlightAware Transoceanic
01:10PM 38.4310 -126.9826 120° Southeast  Level Estimated
01:10PM 38.3861 -126.8486 120° Southeast 488 562 41,000  Level Oakland Center
01:11PM 38.4158 -126.8324 111° Southeast 497 572 41,000 -120 Level FlightAware Transoceanic
01:11PM 38.3331 -126.6944 114° Southeast 481 554 40,900  Descending Oakland Center
01:12PM 38.3646 -126.6650 111° Southeast 497 572 41,000  Climbing FlightAware Transoceanic
01:13PM 38.2658 -126.5094 115° Southeast 479 551 40,900  Descending Oakland Center
01:14PM 38.2086 -126.3528 115° Southeast 481 554 41,000  Climbing Oakland Center
01:15PM 38.1517 -126.1964 115° Southeast 484 557 41,000  Level Oakland Center
01:16PM 38.0942 -126.0414 115° Southeast 486 559 41,000  Level Oakland Center
01:17PM 38.0369 -125.8869 115° Southeast 486 559 41,000  Level Oakland Center
01:18PM 37.9806 -125.7339 115° Southeast 484 557 41,000  Level Oakland Center
01:19PM 37.9247 -125.5822 115° Southeast 481 554 41,000  Level Oakland Center
01:20PM 37.8686 -125.4303 115° Southeast 479 551 41,000 -60 Level Oakland Center
01:21PM 37.7969 -125.2500 117° Southeast 479 551 40,900 -60 Descending Oakland Center
01:22PM 37.7411 -125.0989 115° Southeast 477 549 40,900  Level Oakland Center
01:23PM 37.6850 -124.9494 115° Southeast 475 547 40,900  Level Oakland Center
01:24PM 37.6283 -124.8006 116° Southeast 473 544 41,000  Climbing Oakland Center
01:25PM 37.5717 -124.6522 116° Southeast 472 543 40,900 -60 Descending Oakland Center
01:26PM 37.5158 -124.5036 115° Southeast 472 543 40,900  Level Oakland Center
01:27PM 37.4594 -124.3542 115° Southeast 472 543 40,900  Level Oakland Center
01:28PM 37.4011 -124.2044 116° Southeast 476 548 40,900  Level Oakland Center
01:29PM 37.3442 -124.0567 116° Southeast 474 545 41,000  Climbing Oakland Center
01:30PM 37.2739 -123.8761 116° Southeast 479 551 41,000 -60 Level Oakland Center
01:31PM 37.2156 -123.7289 116° Southeast 477 549 40,900  Descending Oakland Center
01:32PM 37.1578 -123.5817 116° Southeast 475 547 41,000  Climbing Oakland Center
01:37PM 36.8376 -122.7850 116° Southeast 478 550 41,000  Level FlightAware ADS-B
01:38PM 36.7721 -122.6240 117° Southeast 486 559 41,000  Level FlightAware ADS-B
01:40PM 36.6912 -122.4270 117° Southeast 488 562 41,000  Level FlightAware ADS-B
01:40PM 36.6602 -122.3520 117° Southeast 484 557 41,000  Level FlightAware ADS-B
01:41PM 36.6107 -122.2310 117° Southeast 484 557 41,000  Level FlightAware ADS-B
01:41PM 36.5793 -122.1550 117° Southeast 486 559 41,000  Level FlightAware ADS-B
01:42PM 36.5469 -122.0783 117° Southeast 484 557 41,000  Level Oakland Center
01:43PM 36.4858 -121.9272 117° Southeast 488 562 41,000 -60 Level Oakland Center
01:44PM 36.4139 -121.7581 118° Southeast 486 559 40,900  Descending Oakland Center
01:45PM 36.3517 -121.6086 117° Southeast 487 560 41,000  Climbing Oakland Center
01:46PM 36.2875 -121.4589 118° Southeast 491 565 41,000  Level Oakland Center
01:47PM 36.2228 -121.3097 118° Southeast 492 566 41,000 -60 Level Oakland Center
01:48PM 36.1586 -121.1625 118° Southeast 489 563 40,900  Descending Oakland Center
01:49PM 36.0792 -121.0247 125° Southeast 493 567 41,000  Climbing Oakland Center
01:50PM 35.9983 -120.8892 126° Southeast 491 565 40,900 -60 Descending Oakland Center
01:51PM 35.9189 -120.7544 126° Southeast 488 562 40,900  Level Oakland Center
01:52PM 35.8397 -120.6178 126° Southeast 489 563 40,900  Level Oakland Center
01:53PM 35.7436 -120.4553 126° Southeast 488 562 40,900  Level Oakland Center
01:54PM 35.6619 -120.3186 126° Southeast 489 563 41,000  Climbing Oakland Center
01:55PM 35.5986 -120.2150 127° Southeast 485 558 40,900 -60 Descending Los Angeles Center
01:56PM 35.4944 -120.0925 136° Southeast 493 567 40,900 -900 Level Los Angeles Center
01:57PM 35.3914 -119.9806 138° Southeast 490 564 39,100 -2,220 Descending Los Angeles Center
01:58PM 35.2689 -119.8472 138° Southeast 488 562 36,300 -2,760 Descending Los Angeles Center
01:59PM 35.1653 -119.7364 139° Southeast 491 565 33,400 -2,640 Descending Los Angeles Center
02:01PM 35.0625 -119.6253 138° Southeast 493 567 30,900 -2,280 Descending Los Angeles Center
02:02PM 34.9608 -119.5169 139° Southeast 485 558 28,800 -2,100 Descending Los Angeles Center
02:03PM 34.8644 -119.4133 139° Southeast 467 537 26,600 -2,160 Descending Los Angeles Center
02:04PM 34.7708 -119.3144 139° Southeast 450 518 24,400 -2,280 Descending Los Angeles Center
02:05PM 34.6631 -119.2000 139° Southeast 430 495 21,900 -2,160 Descending Los Angeles Center
02:06PM 34.5708 -119.1072 140° Southeast 421 484 19,900 -1,980 Descending Los Angeles Center
02:07PM 34.4867 -119.0175 139° Southeast 399 459 17,800 -2,040 Descending Los Angeles Center
02:08PM 34.4044 -118.9306 139° Southeast 391 450 15,800 -1,980 Descending Los Angeles Center
02:09PM 34.3156 -118.8653 149° Southeast 374 430 13,800 -1,800 Descending Los Angeles Center
02:10PM 34.2161 -118.8317 164° South 370 426 12,200 -1,200 Descending Los Angeles Center
02:15PM 34.0126 -118.4813 164° South 278 320 6,800 -1,260 Descending FlightAware ADS-B
02:16PM 34.0167 -118.3667 164° South 261 300 4,600 -1,800 Descending Southern California TRACON
02:17PM 34.0167 -118.2833 90° East 246 283 2,700 -1,200 Descending Southern California TRACON
02:18PM 33.9789 -118.2933 192° South 202 232 2,300 -780 Descending Los Angeles Center
02:19PM 33.9572 -118.3406 241° Southwest 177 204 1,200 -1,020 Descending Los Angeles Center
02:20PM 33.9544 -118.3897 266° West 159 183 300 -900 Descending Los Angeles Center